LIPH/TSF METAR and TAF weather

Enter ICAO airport designator
Station Type Date Time Source
LIPH METAR 2020/04/05 15:50 UTC NOAA

LIPH 051550Z 07011KT CAVOK 21/M03 Q1022


Station Type Date Time Source
LIPH Decoded METAR 2020/04/05 15:50 UTC NOAA

Treviso / S. Angelo, Italy (LIPH) 45-39N 012-11E 23M
Apr 05, 2020 - 11:50 AM EDT / 2020.04.05 1550 UTC
Wind: from the ENE (070 degrees) at 13 MPH (11 KT):0
Visibility: greater than 7 mile(s):0
Temperature: 69 F (21 C)
Dew Point: 26 F (-3 C)
Relative Humidity: 19%
Pressure (altimeter): 30.18 in. Hg (1022 hPa)
ob: LIPH 051550Z 07011KT CAVOK 21/M03 Q1022
cycle: 16

Station Type Date Time Source
LIPH TAF 2020/04/05 12:23 UTC NOAA

TAF LIPH 051100Z 0512/0612 VRB04KT CAVOK

Example: see airport list